createdAt,value
2022-08-04T04:00:39.089Z,3.90
2022-08-04T04:03:48.447Z,3.95
2022-08-04T04:06:54.235Z,3.85
2022-08-04T04:09:57.460Z,3.60
2022-08-04T04:12:46.718Z,3.92
2022-08-04T04:15:49.548Z,3.63
2022-08-04T04:18:27.394Z,4.07
2022-08-04T04:21:06.399Z,3.88
2022-08-04T04:23:51.494Z,3.63
2022-08-04T04:26:36.095Z,3.42
2022-08-04T04:29:24.496Z,4.07
2022-08-04T04:32:09.924Z,3.53
2022-08-04T04:34:46.655Z,3.72
2022-08-04T04:37:32.432Z,3.97
2022-08-04T04:40:22.395Z,3.78
2022-08-04T04:43:19.517Z,3.83
2022-08-04T04:46:05.931Z,3.88
2022-08-04T04:48:41.599Z,4.18
2022-08-04T04:51:17.116Z,3.78
2022-08-04T04:54:08.464Z,4.43
2022-08-04T04:56:47.271Z,3.85
2022-08-04T04:59:16.779Z,4.18
2022-08-04T05:01:59.589Z,3.63
2022-08-04T05:04:38.217Z,3.50
2022-08-04T05:07:23.845Z,3.85
2022-08-04T05:10:05.483Z,3.80
2022-08-04T05:14:33.053Z,3.78
2022-08-04T05:15:42.315Z,3.72
2022-08-04T05:18:12.578Z,3.72
2022-08-04T05:20:42.273Z,3.60
2022-08-04T05:23:19.475Z,3.55
2022-08-04T05:26:00.294Z,3.50
2022-08-04T05:28:53.322Z,3.85
2022-08-04T05:31:24.463Z,3.85
2022-08-04T05:33:58.820Z,4.07
2022-08-04T05:36:40.920Z,4.15
2022-08-04T05:39:15.255Z,4.03
2022-08-04T05:41:45.756Z,4.20
2022-08-04T05:44:19.725Z,3.83
2022-08-04T05:46:53.934Z,3.53
2022-08-04T05:49:23.121Z,4.07
2022-08-04T05:51:51.082Z,4.05
2022-08-04T05:54:18.476Z,3.67
2022-08-04T05:56:45.395Z,3.95
2022-08-04T05:59:13.058Z,4.13
2022-08-04T06:01:55.715Z,4.05
2022-08-04T06:04:26.896Z,3.55
2022-08-04T06:06:54.919Z,3.90
2022-08-04T06:09:21.398Z,3.83
2022-08-04T06:12:00.438Z,3.53
2022-08-04T06:14:43.035Z,3.38
2022-08-04T06:18:32.975Z,4.30
2022-08-04T06:20:19.519Z,3.60
2022-08-04T06:22:54.141Z,3.97
2022-08-04T06:25:23.812Z,3.67
2022-08-04T06:27:51.430Z,4.10
2022-08-04T06:30:19.529Z,4.15
2022-08-04T06:32:49.548Z,3.97
2022-08-04T06:35:18.721Z,3.97
2022-08-04T06:37:48.883Z,3.83
2022-08-04T06:40:31.813Z,3.58
2022-08-04T06:43:01.856Z,3.80
2022-08-04T06:45:29.444Z,4.57
2022-08-04T06:47:56.568Z,4.00
2022-08-04T06:51:32.185Z,4.07
2022-08-04T06:53:11.442Z,4.10
2022-08-04T06:55:39.062Z,4.30
2022-08-04T06:58:07.584Z,4.03
2022-08-04T07:00:36.294Z,3.90
2022-08-04T07:03:04.062Z,4.13
2022-08-04T07:05:31.228Z,3.88
2022-08-04T07:07:58.940Z,3.95
2022-08-04T07:10:30.763Z,4.18
2022-08-04T07:12:58.886Z,3.67
2022-08-04T07:15:26.429Z,4.40
2022-08-04T07:17:54.452Z,4.07
2022-08-04T07:20:34.537Z,4.05
2022-08-04T07:23:06.569Z,3.78
2022-08-04T07:26:00.322Z,4.18
2022-08-04T07:28:26.771Z,3.65
2022-08-04T07:30:54.795Z,4.20
2022-08-04T07:33:22.297Z,3.85
2022-08-04T07:36:05.487Z,4.18
2022-08-04T07:38:48.436Z,4.20
2022-08-04T07:41:40.647Z,4.20
2022-08-04T07:44:08.284Z,4.00
2022-08-04T07:46:36.133Z,4.05
2022-08-04T07:49:03.346Z,4.40
2022-08-04T07:51:31.230Z,4.10
2022-08-04T07:53:58.609Z,3.78
2022-08-04T07:56:26.427Z,4.10
2022-08-04T07:58:53.156Z,4.10
2022-08-04T08:01:20.097Z,3.85
2022-08-04T08:03:47.906Z,3.45
2022-08-04T08:06:30.728Z,3.60
2022-08-04T08:09:13.419Z,3.70
2022-08-04T08:12:37.268Z,4.15
2022-08-04T08:14:29.078Z,3.78
2022-08-04T08:16:55.801Z,3.80
2022-08-04T08:19:22.330Z,3.38
2022-08-04T08:21:59.298Z,3.30
2022-08-04T08:24:28.213Z,3.33
2022-08-04T08:26:55.926Z,3.60
2022-08-04T08:29:23.198Z,3.22
2022-08-04T08:31:56.164Z,3.42
2022-08-04T08:34:28.215Z,3.17
2022-08-04T08:37:21.405Z,3.78
2022-08-04T08:40:17.158Z,3.55
2022-08-04T08:44:04.956Z,4.07
2022-08-04T08:46:05.154Z,3.50
2022-08-04T08:48:52.151Z,3.20
2022-08-04T08:51:31.729Z,3.45
2022-08-04T08:54:32.375Z,3.28
2022-08-04T08:57:17.056Z,3.70
2022-08-04T08:59:52.767Z,3.40
2022-08-04T09:03:04.838Z,3.40
2022-08-04T09:05:43.698Z,3.05
2022-08-04T09:08:36.571Z,3.65
2022-08-04T09:11:15.069Z,3.03
2022-08-04T09:13:48.379Z,2.97
2022-08-04T09:16:20.955Z,3.33
2022-08-04T09:19:37.550Z,2.95
2022-08-04T09:22:16.166Z,3.53
2022-08-04T09:25:08.825Z,3.05
2022-08-04T09:27:46.065Z,2.88
2022-08-04T09:30:15.467Z,3.50
2022-08-04T09:33:05.901Z,3.13
2022-08-04T09:36:10.990Z,3.08
2022-08-04T09:39:10.116Z,3.08
2022-08-04T09:41:48.329Z,2.88
2022-08-04T09:44:48.791Z,3.28
2022-08-04T09:47:24.813Z,3.05
2022-08-04T09:50:10.155Z,3.10
2022-08-04T09:52:49.491Z,3.40
2022-08-04T09:55:35.624Z,3.22
2022-08-04T09:58:11.573Z,3.55
2022-08-04T10:00:47.091Z,3.60
2022-08-04T10:03:20.222Z,3.35
2022-08-04T10:06:11.735Z,3.30
2022-08-04T10:09:08.915Z,3.17
2022-08-04T10:12:08.053Z,3.60
2022-08-04T10:14:55.897Z,3.70
2022-08-04T10:17:51.956Z,3.53
2022-08-04T10:20:47.044Z,3.83
2022-08-04T10:23:18.178Z,3.47
2022-08-04T10:26:05.876Z,3.50
2022-08-04T10:28:44.671Z,3.30
2022-08-04T10:31:36.438Z,3.30
2022-08-04T10:34:13.025Z,3.35
2022-08-04T10:37:09.126Z,3.50
2022-08-04T10:40:11.675Z,3.17
2022-08-04T10:42:45.224Z,3.85
2022-08-04T10:45:19.652Z,3.50
2022-08-04T10:47:59.569Z,3.20
2022-08-04T10:50:29.684Z,3.75
2022-08-04T10:53:05.535Z,3.10
2022-08-04T10:56:07.352Z,3.42
2022-08-04T10:58:52.898Z,3.30
2022-08-04T11:01:59.925Z,3.13
2022-08-04T11:04:43.817Z,3.17
2022-08-04T11:07:11.823Z,2.95
2022-08-04T11:09:40.661Z,3.20
2022-08-04T11:12:15.491Z,3.05
2022-08-04T11:14:51.297Z,3.00
2022-08-04T11:17:26.164Z,3.03
2022-08-04T11:20:39.926Z,3.03
2022-08-04T11:23:11.756Z,2.85
2022-08-04T11:25:58.173Z,2.70
2022-08-04T11:29:03.323Z,3.42
2022-08-04T11:31:39.309Z,2.95
2022-08-04T11:34:17.898Z,2.95
2022-08-04T11:36:49.818Z,2.60
2022-08-04T11:39:22.371Z,2.70
2022-08-04T11:41:56.717Z,2.85
2022-08-04T11:44:43.627Z,2.85
2022-08-04T11:47:27.172Z,2.47
2022-08-04T11:50:11.264Z,2.50
2022-08-04T11:55:11.493Z,2.33
2022-08-04T11:57:38.838Z,2.50
2022-08-04T12:00:12.593Z,2.75
2022-08-04T12:02:57.674Z,2.72
2022-08-04T12:05:41.435Z,2.72
2022-08-04T12:08:26.685Z,3.05
2022-08-04T12:11:09.100Z,2.60
2022-08-04T12:13:42.013Z,2.53
2022-08-04T12:16:14.496Z,2.35
2022-08-04T12:18:54.828Z,2.40
2022-08-04T12:21:35.510Z,2.60
2022-08-04T12:24:05.681Z,2.42
2022-08-04T12:26:40.308Z,2.40
2022-08-04T12:29:11.669Z,2.50
2022-08-04T12:32:11.601Z,2.53
2022-08-04T12:34:47.985Z,2.47
2022-08-04T12:37:34.299Z,2.15
2022-08-04T12:40:28.887Z,3.00
2022-08-04T12:43:13.191Z,2.78
2022-08-04T12:45:50.614Z,2.92
2022-08-04T12:48:21.442Z,2.67
2022-08-04T12:50:56.586Z,2.50
2022-08-04T12:53:51.338Z,2.88
2022-08-04T12:56:26.515Z,2.58
2022-08-04T12:59:00.432Z,2.40
2022-08-04T13:04:18.172Z,2.63
2022-08-04T13:06:51.892Z,2.83
2022-08-04T13:09:20.941Z,2.60
2022-08-04T13:11:52.572Z,2.30
2022-08-04T13:14:27.464Z,2.70
2022-08-04T13:17:00.322Z,2.85
2022-08-04T13:19:28.818Z,2.70
2022-08-04T13:22:02.197Z,2.63
2022-08-04T13:24:34.132Z,2.83
2022-08-04T13:27:09.280Z,2.60
2022-08-04T13:29:57.688Z,3.13
2022-08-04T13:32:28.610Z,2.70
2022-08-04T13:34:57.298Z,2.90
2022-08-04T13:37:34.807Z,3.00
2022-08-04T13:40:04.378Z,2.60
2022-08-04T13:42:33.709Z,2.55
2022-08-04T13:45:04.275Z,2.92
2022-08-04T13:47:34.825Z,2.97
2022-08-04T13:50:15.642Z,3.30
2022-08-04T13:52:43.743Z,2.80
2022-08-04T13:55:26.252Z,3.13
2022-08-04T13:57:58.871Z,2.50
2022-08-04T14:00:30.080Z,3.08
2022-08-04T14:03:19.105Z,2.80
2022-08-04T14:06:14.169Z,2.90
2022-08-04T14:08:53.949Z,2.70
2022-08-04T14:12:09.243Z,2.92
2022-08-04T14:14:29.610Z,2.97
2022-08-04T14:17:02.198Z,2.85
2022-08-04T14:19:47.756Z,3.03
2022-08-04T14:22:26.295Z,3.17
2022-08-04T14:25:00.347Z,3.10
2022-08-04T14:27:30.986Z,2.30
2022-08-04T14:29:57.553Z,2.63
2022-08-04T14:32:26.241Z,3.10
2022-08-04T14:34:53.225Z,3.17
2022-08-04T14:37:22.417Z,2.90
2022-08-04T14:40:07.945Z,2.70
2022-08-04T14:42:54.430Z,2.70
2022-08-04T14:45:54.673Z,2.83
2022-08-04T14:48:22.035Z,3.00
2022-08-04T14:50:50.504Z,2.60
2022-08-04T14:53:26.244Z,2.53
2022-08-04T14:55:57.583Z,2.97
2022-08-04T14:58:36.699Z,2.72
2022-08-04T15:01:10.295Z,2.67
2022-08-04T15:03:50.720Z,2.60
2022-08-04T15:06:23.031Z,2.75
2022-08-04T15:08:51.594Z,2.75
2022-08-04T15:11:23.123Z,2.90
2022-08-04T15:13:55.066Z,2.53
2022-08-04T15:16:22.879Z,3.00
2022-08-04T15:18:50.773Z,2.72
2022-08-04T15:21:19.648Z,2.85
2022-08-04T15:23:46.414Z,2.70
2022-08-04T15:26:16.057Z,3.00
2022-08-04T15:28:55.900Z,2.70
2022-08-04T15:32:08.630Z,2.90
2022-08-04T15:34:10.913Z,2.67
2022-08-04T15:36:56.641Z,2.83
2022-08-04T15:39:43.820Z,2.50
2022-08-04T15:42:34.223Z,2.80
2022-08-04T15:45:21.030Z,2.80
2022-08-04T15:48:16.575Z,2.55
2022-08-04T15:51:02.892Z,2.30
2022-08-04T15:54:03.311Z,2.30
2022-08-04T15:56:34.833Z,2.30
2022-08-04T15:59:01.439Z,3.03
2022-08-04T16:01:28.265Z,3.35
2022-08-04T16:03:59.882Z,3.63
2022-08-04T16:06:28.961Z,3.65
2022-08-04T16:09:02.081Z,3.50
2022-08-04T16:11:31.742Z,3.25
2022-08-04T16:13:58.590Z,3.30
2022-08-04T16:16:29.057Z,2.65
2022-08-04T16:19:04.271Z,2.47
2022-08-04T16:21:33.652Z,2.70
2022-08-04T16:24:09.848Z,2.42
2022-08-04T16:26:57.381Z,2.20
2022-08-04T16:29:23.935Z,2.50
2022-08-04T16:32:12.980Z,2.20
2022-08-04T16:34:53.826Z,2.38
2022-08-04T16:37:23.633Z,2.38
2022-08-04T16:39:52.090Z,2.15
2022-08-04T16:42:27.929Z,2.08
2022-08-04T16:45:12.727Z,2.28
2022-08-04T16:47:48.549Z,2.30
2022-08-04T16:50:16.777Z,2.38
2022-08-04T16:52:49.236Z,2.20
2022-08-04T16:55:23.745Z,2.22
2022-08-04T16:57:52.188Z,2.00
2022-08-04T17:00:28.241Z,2.55
2022-08-04T17:02:54.939Z,2.35
2022-08-04T17:05:39.864Z,2.30
2022-08-04T17:08:29.135Z,2.47
2022-08-04T17:10:55.280Z,2.40
2022-08-04T17:14:04.011Z,2.33
2022-08-04T17:16:28.889Z,2.50
2022-08-04T17:18:55.701Z,2.45
2022-08-04T17:21:25.379Z,2.47
2022-08-04T17:24:12.814Z,2.55
2022-08-04T17:26:45.301Z,2.58
2022-08-04T17:29:20.000Z,2.60
2022-08-04T17:31:47.040Z,2.55
2022-08-04T17:34:19.515Z,2.55
2022-08-04T17:36:47.963Z,3.00
2022-08-04T17:39:19.835Z,2.97
2022-08-04T17:41:49.567Z,2.95
2022-08-04T17:44:17.555Z,2.65
2022-08-04T17:46:45.559Z,2.85
2022-08-04T17:49:16.941Z,3.08
2022-08-04T17:52:06.037Z,2.95
2022-08-04T17:54:39.498Z,3.40
2022-08-04T17:57:21.658Z,2.92
2022-08-04T17:59:56.513Z,3.25
2022-08-04T18:02:34.785Z,3.05
2022-08-04T18:05:09.957Z,3.20
2022-08-04T18:08:39.004Z,3.40
2022-08-04T18:13:28.647Z,3.53
2022-08-04T18:16:06.189Z,3.50
2022-08-04T18:18:41.259Z,2.88
2022-08-04T18:21:15.644Z,2.70
2022-08-04T18:23:50.990Z,3.30
2022-08-04T18:26:18.167Z,3.10
2022-08-04T18:28:50.450Z,3.17
2022-08-04T18:31:16.950Z,3.10
2022-08-04T18:33:43.405Z,3.22
2022-08-04T18:36:34.922Z,3.13
2022-08-04T18:39:12.065Z,3.03
2022-08-04T18:42:00.782Z,3.50
2022-08-04T18:44:29.004Z,3.30
2022-08-04T18:47:19.143Z,2.92
2022-08-04T18:50:59.381Z,3.17
2022-08-04T18:52:33.228Z,3.10
2022-08-04T18:55:01.980Z,3.13
2022-08-04T18:57:59.564Z,3.00
2022-08-04T19:00:19.903Z,3.25
2022-08-04T19:02:46.849Z,3.15
2022-08-04T19:05:17.062Z,2.97
2022-08-04T19:08:02.123Z,2.70
2022-08-04T19:10:30.534Z,2.90
2022-08-04T19:12:58.790Z,3.33
2022-08-04T19:15:33.943Z,3.38
2022-08-04T19:18:01.518Z,3.50
2022-08-04T19:24:27.671Z,3.47
2022-08-04T19:26:06.619Z,3.42
2022-08-04T19:28:36.878Z,3.10
2022-08-04T19:31:08.914Z,3.10
2022-08-04T19:33:58.389Z,3.15
2022-08-04T19:36:27.801Z,2.90
2022-08-04T19:39:00.373Z,3.13
2022-08-04T19:41:27.667Z,3.03
2022-08-04T19:43:55.084Z,2.95
2022-08-04T19:46:25.004Z,3.20
2022-08-04T19:49:00.129Z,3.40
2022-08-04T19:51:28.712Z,3.53
2022-08-04T19:54:02.368Z,3.25
2022-08-04T19:56:39.839Z,3.30
2022-08-04T19:59:08.737Z,3.30
2022-08-04T20:01:42.181Z,2.70
2022-08-04T20:04:14.195Z,3.17
2022-08-04T20:06:41.118Z,3.13
2022-08-04T20:09:25.705Z,3.00
2022-08-04T20:11:57.346Z,3.20
2022-08-04T20:14:31.232Z,3.35
2022-08-04T20:17:00.553Z,3.42
2022-08-04T20:19:27.472Z,3.13
2022-08-04T20:24:47.997Z,2.80
2022-08-04T20:27:21.361Z,3.22
2022-08-04T20:29:50.373Z,3.38
2022-08-04T20:32:20.162Z,3.55
2022-08-04T20:34:51.442Z,3.42
2022-08-04T20:37:19.826Z,3.22
2022-08-04T20:39:54.359Z,3.38
2022-08-04T20:42:34.274Z,3.38
2022-08-04T20:45:01.288Z,3.63
2022-08-04T20:47:31.114Z,3.50
2022-08-04T20:50:03.105Z,3.17
2022-08-04T20:52:30.406Z,3.20
2022-08-04T20:54:57.359Z,3.40
2022-08-04T20:57:48.542Z,3.45
2022-08-04T21:00:13.406Z,3.58
2022-08-04T21:02:40.166Z,3.65
2022-08-04T21:05:08.269Z,3.30
2022-08-04T21:07:41.806Z,3.33
2022-08-04T21:10:10.641Z,3.80
2022-08-04T21:12:40.003Z,3.03
2022-08-04T21:15:13.677Z,3.63
2022-08-04T21:17:59.043Z,2.92
2022-08-04T21:20:29.324Z,3.50
2022-08-04T21:22:59.403Z,3.13
2022-08-04T21:25:28.361Z,3.72
2022-08-04T21:27:54.818Z,3.10
2022-08-04T21:30:26.334Z,3.58
2022-08-04T21:32:55.435Z,3.53
2022-08-04T21:35:30.850Z,3.13
2022-08-04T21:38:16.161Z,3.05
2022-08-04T21:40:53.493Z,3.17
2022-08-04T21:46:13.588Z,3.15
2022-08-04T21:48:44.786Z,3.30
2022-08-04T21:51:57.095Z,2.90
2022-08-04T21:54:06.787Z,3.25
2022-08-04T21:56:34.094Z,3.20
2022-08-04T21:59:03.430Z,3.50
